createdAt,value
2019-05-15T00:01:48.928Z,57.10
2019-05-15T00:04:18.752Z,53.70
2019-05-15T00:06:48.769Z,53.60
2019-05-15T00:09:19.228Z,55.70
2019-05-15T00:11:52.523Z,57.30
2019-05-15T00:14:22.157Z,57.50
2019-05-15T00:16:51.753Z,58.80
2019-05-15T00:19:21.404Z,56.00
2019-05-15T00:21:51.006Z,54.90
2019-05-15T00:24:23.461Z,54.90
2019-05-15T00:26:53.127Z,55.00
2019-05-15T00:29:22.805Z,50.80
2019-05-15T00:31:52.521Z,51.80
2019-05-15T00:34:22.366Z,54.70
2019-05-15T00:36:52.157Z,56.20
2019-05-15T00:39:22.041Z,57.40
2019-05-15T00:41:54.732Z,59.30
2019-05-15T00:44:24.196Z,59.90
2019-05-15T00:46:53.802Z,65.10
2019-05-15T00:49:23.476Z,66.70
2019-05-15T00:51:53.110Z,66.40
2019-05-15T00:54:41.791Z,70.00
2019-05-15T00:57:11.441Z,70.20
2019-05-15T00:59:41.076Z,65.60
2019-05-15T01:02:10.663Z,76.40
2019-05-15T01:04:40.291Z,75.10
2019-05-15T01:07:11.019Z,66.80
2019-05-15T01:09:40.625Z,76.40
2019-05-15T01:12:10.288Z,76.20
2019-05-15T01:14:39.913Z,77.60
2019-05-15T01:17:09.492Z,81.20
2019-05-15T01:19:39.113Z,79.50
2019-05-15T01:22:08.844Z,83.10
2019-05-15T01:24:39.022Z,85.80
2019-05-15T01:27:09.175Z,77.50
2019-05-15T01:29:44.737Z,76.20
2019-05-15T01:32:10.197Z,76.90
2019-05-15T01:34:39.851Z,78.20
2019-05-15T01:37:28.572Z,79.20
2019-05-15T01:39:58.282Z,81.10
2019-05-15T01:42:28.116Z,81.80
2019-05-15T01:44:58.975Z,80.00
2019-05-15T01:47:28.808Z,81.20
2019-05-15T01:49:58.482Z,83.10
2019-05-15T01:52:28.088Z,84.70
2019-05-15T01:54:58.292Z,81.60
2019-05-15T01:57:28.778Z,83.60
2019-05-15T02:00:00.824Z,82.10
2019-05-15T02:02:31.313Z,83.40
2019-05-15T02:05:01.605Z,90.10
2019-05-15T02:07:31.240Z,84.30
2019-05-15T02:10:00.886Z,91.70
2019-05-15T02:12:30.575Z,99.90
2019-05-15T02:15:00.252Z,99.90
2019-05-15T02:17:29.912Z,99.90
2019-05-15T02:19:59.560Z,99.90
2019-05-15T02:22:29.201Z,99.90
2019-05-15T02:24:59.371Z,99.90
2019-05-15T02:27:39.137Z,99.90
2019-05-15T02:30:20.976Z,99.90
2019-05-15T02:33:11.216Z,99.90
2019-05-15T02:36:14.653Z,99.90
2019-05-15T02:39:18.924Z,99.90
2019-05-15T02:42:02.628Z,99.90
2019-05-15T02:44:39.913Z,99.90
2019-05-15T02:47:10.734Z,99.90
2019-05-15T02:49:41.332Z,99.90
2019-05-15T02:52:11.164Z,99.90
2019-05-15T02:54:43.314Z,99.90
2019-05-15T02:57:39.332Z,99.90
2019-05-15T03:01:09.460Z,99.90
2019-05-15T03:04:32.150Z,99.90
2019-05-15T03:07:39.704Z,99.90
2019-05-15T03:10:09.154Z,99.90
2019-05-15T03:12:40.892Z,99.90
2019-05-15T03:15:10.022Z,99.90
2019-05-15T03:17:40.894Z,99.90
2019-05-15T03:20:13.657Z,99.90
2019-05-15T03:23:12.614Z,99.90
2019-05-15T03:26:29.952Z,99.90
2019-05-15T03:29:04.761Z,99.90
2019-05-15T03:31:52.840Z,99.90
2019-05-15T03:34:21.563Z,99.90
2019-05-15T03:37:22.193Z,99.90
2019-05-15T03:39:55.393Z,99.90
2019-05-15T03:42:29.145Z,99.90
2019-05-15T03:45:14.234Z,99.90
2019-05-15T03:47:59.599Z,99.90
2019-05-15T03:50:48.837Z,99.90
2019-05-15T03:53:23.961Z,99.90
2019-05-15T03:56:39.177Z,99.90
2019-05-15T03:59:29.746Z,99.90
2019-05-15T04:02:00.067Z,99.90
2019-05-15T04:04:56.949Z,99.90
2019-05-15T04:07:32.567Z,99.90
2019-05-15T04:13:29.927Z,99.90
2019-05-15T04:16:29.671Z,99.90
2019-05-15T04:19:13.477Z,99.90
2019-05-15T04:21:45.052Z,99.90
2019-05-15T04:24:15.376Z,99.90
2019-05-15T04:26:48.799Z,99.90
2019-05-15T04:29:19.411Z,99.90
2019-05-15T04:32:10.137Z,99.90
2019-05-15T04:34:39.651Z,99.90
2019-05-15T04:37:18.974Z,99.90
2019-05-15T04:39:59.817Z,99.90
2019-05-15T04:42:32.821Z,99.90
2019-05-15T04:45:11.133Z,99.90
2019-05-15T04:47:49.850Z,99.90
2019-05-15T04:50:28.964Z,99.90
2019-05-15T04:52:59.494Z,99.90
2019-05-15T04:55:40.912Z,99.90
2019-05-15T04:58:12.431Z,99.90
2019-05-15T05:00:50.340Z,99.90
2019-05-15T05:03:20.774Z,99.90
2019-05-15T05:05:51.221Z,99.90
2019-05-15T05:08:21.262Z,99.90
2019-05-15T05:10:51.228Z,99.90
2019-05-15T05:13:30.220Z,99.90
2019-05-15T05:16:00.532Z,99.90
2019-05-15T05:18:41.125Z,99.90
2019-05-15T05:21:28.925Z,99.90
2019-05-15T05:24:20.392Z,99.90
2019-05-15T05:27:08.664Z,99.90
2019-05-15T05:29:38.606Z,99.90
2019-05-15T05:32:09.303Z,99.90
2019-05-15T05:34:40.216Z,99.90
2019-05-15T05:37:10.315Z,99.90
2019-05-15T05:39:42.813Z,99.90
2019-05-15T05:42:12.688Z,99.90
2019-05-15T05:44:45.823Z,99.90
2019-05-15T05:47:18.272Z,99.90
2019-05-15T05:49:48.897Z,99.90
2019-05-15T05:52:18.754Z,99.90
2019-05-15T05:54:50.251Z,99.90
2019-05-15T05:57:19.985Z,99.90
2019-05-15T05:59:52.683Z,99.90
2019-05-15T06:02:23.459Z,99.90
2019-05-15T06:04:53.188Z,99.90
2019-05-15T06:07:23.534Z,99.90
2019-05-15T06:09:58.153Z,99.90
2019-05-15T06:12:28.872Z,99.90
2019-05-15T06:15:00.130Z,99.90
2019-05-15T06:17:31.123Z,99.90
2019-05-15T06:20:02.505Z,99.90
2019-05-15T06:22:39.280Z,99.90
2019-05-15T06:25:19.790Z,99.90
2019-05-15T06:27:50.241Z,99.90
2019-05-15T06:30:27.496Z,99.90
2019-05-15T06:33:05.775Z,99.90
2019-05-15T06:35:31.832Z,99.90
2019-05-15T06:38:23.676Z,99.90
2019-05-15T06:40:54.549Z,99.90
2019-05-15T06:43:28.079Z,99.90
2019-05-15T06:45:58.547Z,99.90
2019-05-15T06:48:29.525Z,99.90
2019-05-15T06:51:20.139Z,99.90
2019-05-15T06:53:50.385Z,99.90
2019-05-15T06:56:42.273Z,99.90
2019-05-15T06:59:11.993Z,99.90
2019-05-15T07:01:41.659Z,99.90
2019-05-15T07:04:11.412Z,99.90
2019-05-15T07:06:41.003Z,99.90
2019-05-15T07:09:10.746Z,99.90
2019-05-15T07:11:40.335Z,99.90
2019-05-15T07:14:10.008Z,99.90
2019-05-15T07:16:39.629Z,99.90
2019-05-15T07:19:09.305Z,99.90
2019-05-15T07:21:39.077Z,99.90
2019-05-15T07:24:09.334Z,99.90
2019-05-15T07:26:39.392Z,99.90
2019-05-15T07:29:09.175Z,99.90
2019-05-15T07:31:40.592Z,99.90
2019-05-15T07:34:10.387Z,99.90
2019-05-15T07:36:40.050Z,99.90
2019-05-15T07:39:10.045Z,99.90
2019-05-15T07:41:39.649Z,99.90
2019-05-15T07:44:09.297Z,99.90
2019-05-15T07:46:39.001Z,99.90
2019-05-15T07:49:09.122Z,99.90
2019-05-15T07:51:39.080Z,99.90
2019-05-15T07:54:09.281Z,99.90
2019-05-15T07:56:39.098Z,99.90
2019-05-15T07:59:08.754Z,99.90
2019-05-15T08:01:38.764Z,99.90
2019-05-15T08:04:24.737Z,99.90
2019-05-15T08:06:39.798Z,99.90
2019-05-15T08:09:09.566Z,99.90
2019-05-15T08:11:39.351Z,99.90
2019-05-15T08:14:09.201Z,99.90
2019-05-15T08:16:39.636Z,99.90
2019-05-15T08:19:09.590Z,99.90
2019-05-15T08:21:41.989Z,99.90
2019-05-15T08:24:11.658Z,99.90
2019-05-15T08:26:45.308Z,99.90
2019-05-15T08:29:12.708Z,99.90
2019-05-15T08:31:42.356Z,99.90
2019-05-15T08:34:15.917Z,99.90
2019-05-15T08:36:43.312Z,99.90
2019-05-15T08:39:12.980Z,99.90
2019-05-15T08:41:42.673Z,99.90
2019-05-15T08:44:12.328Z,99.90
2019-05-15T08:46:44.313Z,99.90
2019-05-15T08:49:13.608Z,99.90
2019-05-15T08:51:43.344Z,99.90
2019-05-15T08:54:13.077Z,99.90
2019-05-15T08:56:42.765Z,99.90
2019-05-15T08:59:12.358Z,99.90
2019-05-15T09:01:42.005Z,99.90
2019-05-15T09:04:26.099Z,99.90
2019-05-15T09:06:42.897Z,99.90
2019-05-15T09:09:12.512Z,99.90
2019-05-15T09:11:42.161Z,99.90
2019-05-15T09:14:12.798Z,99.90
2019-05-15T09:16:42.433Z,99.90
2019-05-15T09:19:12.088Z,99.90
2019-05-15T09:21:41.799Z,99.90
2019-05-15T09:24:30.474Z,99.90
2019-05-15T09:27:00.153Z,99.90
2019-05-15T09:29:31.755Z,99.90
2019-05-15T09:32:01.405Z,99.90
2019-05-15T09:34:46.843Z,99.90
2019-05-15T09:39:31.463Z,99.90
2019-05-15T09:42:01.109Z,99.90
2019-05-15T09:44:30.826Z,99.90
2019-05-15T09:47:00.528Z,99.90
2019-05-15T09:49:31.443Z,99.90
2019-05-15T09:52:01.226Z,99.90
2019-05-15T09:54:30.881Z,99.90
2019-05-15T09:57:00.548Z,99.90
2019-05-15T09:59:30.321Z,99.90
2019-05-15T10:02:00.125Z,99.90
2019-05-15T10:04:29.786Z,99.90
2019-05-15T10:06:59.458Z,99.90
2019-05-15T10:09:29.198Z,99.90
2019-05-15T10:11:58.861Z,99.90
2019-05-15T10:14:29.668Z,99.90
2019-05-15T10:16:59.623Z,99.90
2019-05-15T10:19:48.836Z,99.90
2019-05-15T10:22:18.862Z,99.90
2019-05-15T10:24:50.782Z,99.90
2019-05-15T10:27:19.810Z,99.90
2019-05-15T10:29:49.432Z,99.90
2019-05-15T10:32:19.631Z,99.90
2019-05-15T10:34:49.408Z,99.90
2019-05-15T10:37:19.112Z,99.90
2019-05-15T10:39:52.555Z,99.90
2019-05-15T10:42:20.013Z,99.90
2019-05-15T10:44:49.655Z,99.90
2019-05-15T10:47:19.339Z,99.90
2019-05-15T10:49:48.963Z,99.90
2019-05-15T10:52:18.653Z,99.90
2019-05-15T10:54:48.350Z,99.90
2019-05-15T10:57:18.943Z,99.90
2019-05-15T10:59:48.680Z,99.90
2019-05-15T11:02:19.182Z,99.90
2019-05-15T11:04:49.048Z,99.90
2019-05-15T11:07:19.465Z,99.90
2019-05-15T11:09:49.307Z,99.90
2019-05-15T11:12:19.129Z,99.90
2019-05-15T11:14:48.920Z,99.90
2019-05-15T11:17:18.615Z,99.90
2019-05-15T11:19:49.923Z,99.90
2019-05-15T11:22:19.593Z,99.90
2019-05-15T11:24:52.835Z,99.90
2019-05-15T11:27:20.688Z,99.90
2019-05-15T11:29:50.382Z,99.90
2019-05-15T11:32:20.206Z,99.90
2019-05-15T11:34:49.848Z,99.90
2019-05-15T11:37:19.549Z,99.90
2019-05-15T11:39:49.244Z,99.90
2019-05-15T11:42:20.340Z,99.90
2019-05-15T11:44:53.170Z,99.90
2019-05-15T11:47:21.389Z,99.90
2019-05-15T11:49:51.096Z,99.90
2019-05-15T11:52:20.772Z,99.90
2019-05-15T11:54:52.753Z,99.90
2019-05-15T11:57:37.335Z,99.90
2019-05-15T11:59:55.618Z,99.90
2019-05-15T12:02:25.331Z,99.90
2019-05-15T12:04:54.913Z,99.90
2019-05-15T12:07:24.592Z,99.90
2019-05-15T12:09:54.680Z,99.90
2019-05-15T12:12:24.309Z,99.90
2019-05-15T12:14:53.914Z,99.90
2019-05-15T12:17:23.620Z,99.90
2019-05-15T12:19:56.834Z,99.90
2019-05-15T12:22:24.610Z,99.90
2019-05-15T12:24:54.239Z,99.90
2019-05-15T12:27:23.885Z,99.90
2019-05-15T12:29:53.510Z,99.90
2019-05-15T12:32:33.075Z,99.90
2019-05-15T12:34:59.784Z,99.90
2019-05-15T12:37:46.435Z,99.90
2019-05-15T13:00:29.865Z,99.90
2019-05-15T13:02:59.293Z,99.90
2019-05-15T13:05:32.489Z,99.90
2019-05-15T13:08:01.869Z,99.90
2019-05-15T13:10:31.530Z,99.90
2019-05-15T13:13:05.397Z,99.90
2019-05-15T13:15:32.633Z,99.90
2019-05-15T13:18:02.292Z,99.90
2019-05-15T13:20:31.863Z,99.90
2019-05-15T13:23:01.884Z,99.90
2019-05-15T13:25:31.669Z,99.90
2019-05-15T13:28:02.229Z,99.90
2019-05-15T13:30:31.922Z,99.90
2019-05-15T13:33:01.590Z,99.90
2019-05-15T13:35:31.340Z,99.90
2019-05-15T13:38:02.342Z,99.90
2019-05-15T13:40:38.116Z,99.90
2019-05-15T13:43:08.326Z,99.90
2019-05-15T13:45:49.067Z,99.90
2019-05-15T13:48:19.943Z,99.90
2019-05-15T13:50:49.789Z,99.90
2019-05-15T13:53:19.421Z,99.90
2019-05-15T13:55:49.147Z,99.90
2019-05-15T13:58:18.746Z,99.90
2019-05-15T14:00:49.247Z,99.90
2019-05-15T14:03:19.161Z,99.90
2019-05-15T14:05:49.859Z,99.90
2019-05-15T14:08:19.727Z,99.90
2019-05-15T14:10:49.501Z,99.90
2019-05-15T14:13:19.158Z,99.90
2019-05-15T14:15:49.034Z,99.90
2019-05-15T14:18:19.676Z,99.90
2019-05-15T14:20:49.963Z,99.90
2019-05-15T14:23:19.590Z,99.90
2019-05-15T14:25:49.272Z,99.90
2019-05-15T14:28:19.017Z,99.90
2019-05-15T14:30:48.779Z,99.90
2019-05-15T14:33:19.482Z,99.90
2019-05-15T14:35:49.362Z,99.90
2019-05-15T14:38:19.005Z,99.90
2019-05-15T14:40:48.787Z,99.90
2019-05-15T14:43:18.598Z,99.90
2019-05-15T14:45:48.389Z,99.90
2019-05-15T14:48:19.053Z,99.90
2019-05-15T14:50:48.933Z,99.90
2019-05-15T14:53:18.752Z,99.90
2019-05-15T14:55:49.255Z,99.90
2019-05-15T14:58:20.305Z,99.90
2019-05-15T15:00:50.411Z,99.90
2019-05-15T15:03:20.163Z,99.90
2019-05-15T15:05:49.844Z,99.90
2019-05-15T15:08:25.052Z,99.90
2019-05-15T15:10:50.846Z,99.90
2019-05-15T15:13:20.503Z,99.90
2019-05-15T15:15:50.536Z,99.90
2019-05-15T15:18:20.135Z,99.90
2019-05-15T15:20:49.816Z,99.90
2019-05-15T15:23:19.389Z,99.90
2019-05-15T15:25:49.094Z,99.90
2019-05-15T15:28:19.014Z,99.90
2019-05-15T15:30:48.836Z,99.90
2019-05-15T15:33:18.492Z,99.90
2019-05-15T15:35:48.657Z,99.90
2019-05-15T15:38:27.127Z,99.90
2019-05-15T15:40:49.817Z,99.90
2019-05-15T15:43:19.775Z,99.90
2019-05-15T15:45:49.467Z,99.90
2019-05-15T15:48:19.429Z,99.90
2019-05-15T15:50:49.357Z,99.90
2019-05-15T15:53:19.222Z,99.90
2019-05-15T15:55:51.714Z,99.90
2019-05-15T15:58:24.578Z,99.90
2019-05-15T16:00:54.275Z,99.90
2019-05-15T16:03:23.978Z,99.90
2019-05-15T16:05:53.756Z,99.90
2019-05-15T16:08:24.125Z,99.90
2019-05-15T16:10:53.775Z,99.90
2019-05-15T16:13:23.392Z,99.90
2019-05-15T16:15:53.095Z,99.90
2019-05-15T16:18:22.683Z,99.90
2019-05-15T16:20:52.331Z,99.90
2019-05-15T16:23:21.960Z,99.90
2019-05-15T16:25:51.616Z,99.90
2019-05-15T16:28:21.246Z,99.90
2019-05-15T16:30:51.709Z,99.90
2019-05-15T16:33:21.614Z,99.90
2019-05-15T16:35:51.442Z,99.90
2019-05-15T16:38:21.132Z,99.90
2019-05-15T16:40:50.964Z,99.90
2019-05-15T16:43:20.652Z,99.90
2019-05-15T16:45:52.153Z,99.90
2019-05-15T16:48:22.080Z,99.90
2019-05-15T16:50:51.815Z,99.90
2019-05-15T16:53:21.471Z,99.90
2019-05-15T16:55:51.149Z,99.90
2019-05-15T16:58:21.323Z,99.90
2019-05-15T17:00:51.187Z,99.90
2019-05-15T17:03:20.824Z,99.90
2019-05-15T17:05:50.617Z,99.90
2019-05-15T17:08:20.367Z,99.90
2019-05-15T17:10:51.893Z,99.90
2019-05-15T17:13:21.555Z,99.90
2019-05-15T17:15:51.309Z,99.90
2019-05-15T17:18:21.056Z,99.90
2019-05-15T17:20:50.749Z,99.90
2019-05-15T17:23:20.443Z,99.90
2019-05-15T17:25:50.132Z,99.90
2019-05-15T17:28:19.857Z,99.90
2019-05-15T17:30:53.572Z,99.90
2019-05-15T17:33:23.222Z,99.90
2019-05-15T17:35:54.331Z,99.90
2019-05-15T17:38:43.017Z,99.90
2019-05-15T17:41:12.708Z,99.90
2019-05-15T17:43:42.391Z,99.90
2019-05-15T17:46:12.096Z,99.90
2019-05-15T17:48:41.725Z,99.90
2019-05-15T17:51:11.303Z,99.90
2019-05-15T17:53:41.127Z,99.90
2019-05-15T17:56:14.373Z,99.90
2019-05-15T17:58:45.729Z,99.90
2019-05-15T18:01:19.191Z,99.90
2019-05-15T18:03:49.189Z,99.90
2019-05-15T18:06:19.371Z,99.90
2019-05-15T18:08:51.691Z,99.90
2019-05-15T18:11:21.339Z,99.90
2019-05-15T18:13:52.745Z,99.90
2019-05-15T18:16:22.503Z,99.90
2019-05-15T18:18:52.332Z,99.90
2019-05-15T18:21:22.512Z,99.90
2019-05-15T18:23:52.309Z,99.90
2019-05-15T18:26:22.247Z,99.90
2019-05-15T18:28:52.223Z,99.90
2019-05-15T18:31:22.905Z,99.90
2019-05-15T18:33:55.134Z,99.90
2019-05-15T18:36:42.111Z,99.90
2019-05-15T18:39:12.690Z,99.90
2019-05-15T18:41:49.720Z,99.90
2019-05-15T18:44:23.167Z,99.90
2019-05-15T18:46:59.430Z,99.90
2019-05-15T18:49:29.129Z,99.90
2019-05-15T18:51:59.065Z,99.90
2019-05-15T18:54:28.766Z,99.90
2019-05-15T18:57:01.321Z,99.90
2019-05-15T18:59:36.565Z,99.90
2019-05-15T19:02:08.632Z,99.90
2019-05-15T19:04:39.945Z,99.90
2019-05-15T19:07:09.684Z,99.90
2019-05-15T19:09:39.432Z,99.90
2019-05-15T19:12:09.858Z,99.90
2019-05-15T19:14:39.702Z,99.90
2019-05-15T19:17:09.457Z,99.90
2019-05-15T19:19:39.801Z,99.90
2019-05-15T19:22:09.537Z,99.90
2019-05-15T19:24:40.182Z,99.90
2019-05-15T19:27:10.055Z,99.90
2019-05-15T19:29:40.620Z,99.90
2019-05-15T19:32:12.611Z,99.90
2019-05-15T19:34:42.077Z,99.90
2019-05-15T19:37:12.034Z,99.90
2019-05-15T19:39:41.870Z,99.90
2019-05-15T19:42:13.571Z,99.90
2019-05-15T19:44:44.312Z,99.90
2019-05-15T19:47:18.402Z,99.90
2019-05-15T19:49:48.415Z,99.90
2019-05-15T19:52:18.377Z,99.90
2019-05-15T19:54:48.633Z,99.90
2019-05-15T19:57:18.759Z,99.90
2019-05-15T19:59:48.891Z,99.90
2019-05-15T20:02:18.672Z,99.90
2019-05-15T20:04:49.119Z,99.90
2019-05-15T20:07:19.377Z,99.90
2019-05-15T20:09:49.018Z,99.90
2019-05-15T20:12:19.690Z,99.90
2019-05-15T20:14:49.600Z,99.90
2019-05-15T20:17:20.733Z,99.90
2019-05-15T20:19:50.535Z,99.90
2019-05-15T20:22:20.235Z,99.90
2019-05-15T20:24:50.370Z,99.90
2019-05-15T20:27:20.200Z,99.90
2019-05-15T20:29:50.549Z,99.90
2019-05-15T20:32:20.300Z,99.90
2019-05-15T20:34:49.966Z,99.90
2019-05-15T20:37:21.813Z,99.90
2019-05-15T20:39:51.200Z,99.90
2019-05-15T20:42:22.508Z,99.90
2019-05-15T20:44:52.542Z,99.90
2019-05-15T20:47:25.123Z,99.90
2019-05-15T20:49:54.843Z,99.90
2019-05-15T20:52:24.588Z,99.90
2019-05-15T20:54:54.270Z,99.90
2019-05-15T20:57:23.914Z,99.90
2019-05-15T20:59:54.188Z,99.90
2019-05-15T21:02:26.060Z,99.90
2019-05-15T21:04:55.778Z,99.90
2019-05-15T21:07:35.770Z,99.90
2019-05-15T21:09:58.810Z,99.90
2019-05-15T21:12:29.895Z,99.90
2019-05-15T21:15:03.392Z,99.90
2019-05-15T21:17:59.611Z,99.90
2019-05-15T21:20:28.639Z,99.90
2019-05-15T21:23:09.876Z,99.90
2019-05-15T21:25:42.182Z,99.90
2019-05-15T21:28:24.603Z,99.90
2019-05-15T21:31:08.806Z,99.90
2019-05-15T21:33:48.507Z,99.90
2019-05-15T21:36:21.864Z,99.90
2019-05-15T21:38:59.397Z,99.90
2019-05-15T21:41:29.705Z,99.90
2019-05-15T21:44:20.658Z,99.90
2019-05-15T21:47:00.760Z,99.90
2019-05-15T21:49:35.641Z,99.90
2019-05-15T21:52:10.190Z,99.90
2019-05-15T21:54:50.775Z,99.90
2019-05-15T21:57:36.501Z,99.90
2019-05-15T22:00:08.780Z,99.90
2019-05-15T22:02:41.356Z,99.90
2019-05-15T22:05:11.640Z,99.90
2019-05-15T22:07:42.645Z,99.90
2019-05-15T22:10:13.085Z,99.90
2019-05-15T22:12:44.957Z,99.90
2019-05-15T22:15:15.059Z,99.90
2019-05-15T22:17:44.939Z,99.90
2019-05-15T22:20:14.919Z,99.90
2019-05-15T22:22:44.577Z,99.90
2019-05-15T22:25:19.046Z,99.90
2019-05-15T22:27:49.442Z,99.90
2019-05-15T22:30:22.143Z,99.90
2019-05-15T22:32:52.790Z,99.90
2019-05-15T22:35:23.837Z,99.90
2019-05-15T22:37:54.354Z,99.90
2019-05-15T22:40:25.953Z,99.90
2019-05-15T22:43:12.780Z,99.90
2019-05-15T22:45:43.337Z,99.90
2019-05-15T22:48:14.616Z,99.90
2019-05-15T22:50:44.327Z,99.90
2019-05-15T22:53:17.766Z,99.90
2019-05-15T22:55:48.400Z,99.90
2019-05-15T22:58:18.427Z,99.90
2019-05-15T23:00:48.921Z,99.90
2019-05-15T23:03:19.076Z,99.90
2019-05-15T23:05:48.914Z,99.90
2019-05-15T23:08:20.164Z,99.90
2019-05-15T23:10:52.427Z,99.90
2019-05-15T23:13:24.504Z,99.90
2019-05-15T23:15:54.254Z,99.90
2019-05-15T23:18:24.733Z,99.90
2019-05-15T23:20:54.553Z,99.90
2019-05-15T23:23:24.858Z,99.90
2019-05-15T23:25:57.835Z,99.90
2019-05-15T23:28:28.742Z,99.90
2019-05-15T23:30:58.513Z,99.90
2019-05-15T23:33:30.719Z,99.90
2019-05-15T23:36:02.107Z,99.90
2019-05-15T23:38:31.770Z,99.90
2019-05-15T23:41:01.588Z,99.90
2019-05-15T23:43:32.267Z,99.90
2019-05-15T23:46:02.014Z,99.90
2019-05-15T23:48:31.681Z,99.90
2019-05-15T23:51:01.677Z,99.90
2019-05-15T23:53:32.087Z,99.90
2019-05-15T23:56:01.722Z,99.90
2019-05-15T23:58:31.447Z,99.90
